TimeMST,TemperatureF,Dew PointF,Humidity,Sea Level PressureIn,VisibilityMPH,Wind Direction,Wind SpeedMPH,Gust SpeedMPH,PrecipitationIn,Events,Conditions,WindDirDegrees,DateUTC
12:53 AM,36.0,26.1,67,30.52,10.0,NW,9.2,-,N/A,,Overcast,310,2013-02-15 07:53:00
1:53 AM,36.0,26.1,67,30.52,10.0,North,5.8,-,N/A,,Overcast,350,2013-02-15 08:53:00
2:53 AM,36.0,26.1,67,30.52,10.0,NNW,3.5,-,N/A,,Overcast,340,2013-02-15 09:53:00
3:53 AM,36.0,26.1,67,30.52,10.0,North,4.6,-,N/A,,Overcast,350,2013-02-15 10:53:00
4:53 AM,36.0,26.1,67,30.53,10.0,WNW,6.9,-,N/A,,Overcast,300,2013-02-15 11:53:00
5:53 AM,35.1,27.0,72,30.54,10.0,West,3.5,-,N/A,,Overcast,260,2013-02-15 12:53:00
6:53 AM,33.1,28.0,82,30.55,10.0,WSW,3.5,-,N/A,,Overcast,250,2013-02-15 13:53:00
7:53 AM,33.1,28.0,82,30.55,10.0,Calm,Calm,-,N/A,,Overcast,0,2013-02-15 14:53:00
8:53 AM,34.0,28.9,82,30.55,10.0,Calm,Calm,-,N/A,,Overcast,0,2013-02-15 15:53:00
9:53 AM,35.1,28.0,76,30.55,10.0,Calm,Calm,-,N/A,,Overcast,0,2013-02-15 16:53:00
10:53 AM,36.0,28.9,76,30.54,10.0,SSW,3.5,-,N/A,,Overcast,210,2013-02-15 17:53:00
11:53 AM,37.9,28.0,68,30.53,10.0,Calm,Calm,-,N/A,,Overcast,0,2013-02-15 18:53:00
12:53 PM,39.0,28.9,67,30.50,10.0,South,3.5,-,N/A,,Overcast,180,2013-02-15 19:53:00
1:53 PM,41.0,30.0,65,30.48,10.0,Calm,Calm,-,N/A,,Overcast,0,2013-02-15 20:53:00
2:53 PM,44.1,30.0,58,30.46,10.0,NW,3.5,-,N/A,,Overcast,320,2013-02-15 21:53:00
3:53 PM,43.0,30.0,60,30.44,10.0,South,3.5,-,N/A,,Overcast,190,2013-02-15 22:53:00
4:53 PM,43.0,30.9,62,30.43,10.0,South,4.6,-,N/A,,Overcast,190,2013-02-15 23:53:00
5:53 PM,43.0,30.0,60,30.42,10.0,Calm,Calm,-,N/A,,Mostly Cloudy,0,2013-02-16 00:53:00
6:53 PM,37.9,28.9,70,30.42,10.0,Calm,Calm,-,N/A,,Clear,0,2013-02-16 01:53:00
7:53 PM,34.0,28.9,82,30.42,10.0,West,4.6,-,N/A,,Clear,280,2013-02-16 02:53:00
8:53 PM,34.0,28.0,79,30.41,10.0,Calm,Calm,-,N/A,,Clear,0,2013-02-16 03:53:00
9:53 PM,32.0,28.0,85,30.40,10.0,NNE,4.6,-,N/A,,Clear,30,2013-02-16 04:53:00
10:53 PM,30.9,27.0,85,30.40,10.0,WNW,3.5,-,N/A,,Clear,290,2013-02-16 05:53:00
11:53 PM,30.0,27.0,88,30.38,10.0,East,3.5,-,N/A,,Clear,80,2013-02-16 06:53:00